Time;durP1;ratioP1;P1;durP2;ratioP2;P2;SDS_P1;SDS_P2;PMS_P1;PMS_P2;Temp;Humidity;BMP_temperature;BMP_pressure;BME280_temperature;BME280_humidity;BME280_pressure;Samples;Min_cycle;Max_cycle;Signal;HPM_P1;HPM_P2
2021/08/24 00:00:30;;;;;;;27.58;21.27;;;17.30;82.30;;;;;;6216691;23;20059;-90
2021/08/24 00:02:57;;;;;;;31.23;24.25;;;17.20;82.30;;;;;;6216305;23;19996;-90
2021/08/24 00:05:26;;;;;;;33.08;23.88;;;17.20;82.70;;;;;;6184711;23;20083;-90
2021/08/24 00:07:56;;;;;;;32.70;22.75;;;17.20;82.80;;;;;;6213656;23;20463;-91
2021/08/24 00:10:27;;;;;;;40.42;25.90;;;17.10;82.80;;;;;;6216236;23;20053;-90
2021/08/24 00:12:54;;;;;;;37.45;26.75;;;17.10;83.00;;;;;;6187615;23;20016;-90
2021/08/24 00:15:20;;;;;;;42.85;28.63;;;17.10;82.80;;;;;;6216385;23;20023;-90
2021/08/24 00:17:46;;;;;;;34.97;25.67;;;17.10;82.60;;;;;;6186116;23;20015;-90
2021/08/24 00:20:12;;;;;;;32.63;24.70;;;17.10;82.40;;;;;;6216603;23;20079;-90
2021/08/24 00:22:39;;;;;;;33.20;24.30;;;17.10;82.20;;;;;;6216684;23;20001;-90
2021/08/24 00:25:11;;;;;;;30.98;23.02;;;17.10;82.30;;;;;;6186452;23;20021;-90
2021/08/24 00:27:37;;;;;;;34.75;23.27;;;17.10;82.40;;;;;;6187243;23;20013;-89
2021/08/24 00:30:04;;;;;;;33.42;25.05;;;17.00;82.40;;;;;;6217927;23;20369;-90
2021/08/24 00:32:30;;;;;;;37.38;22.65;;;17.00;82.30;;;;;;6218643;23;20313;-90
2021/08/24 00:34:56;;;;;;;32.83;23.13;;;17.00;82.40;;;;;;6189671;23;20002;-90
2021/08/24 00:37:22;;;;;;;33.20;23.13;;;16.90;82.50;;;;;;6186943;23;20016;-90
2021/08/24 00:39:48;;;;;;;28.52;19.98;;;16.90;82.70;;;;;;6188027;23;20055;-90
2021/08/24 00:42:18;;;;;;;33.03;23.98;;;16.90;82.80;;;;;;6218349;23;20028;-90
2021/08/24 00:44:45;;;;;;;31.50;22.80;;;16.80;83.00;;;;;;6218397;23;20059;-90
2021/08/24 00:47:15;;;;;;;31.35;22.25;;;16.90;83.30;;;;;;6186277;23;20001;-90
2021/08/24 00:49:44;;;;;;;29.10;22.33;;;16.80;83.40;;;;;;6186916;23;20424;-90
2021/08/24 00:52:21;;;;;;;28.73;21.08;;;16.80;83.50;;;;;;6186328;23;20021;-91
2021/08/24 00:54:48;;;;;;;29.30;20.23;;;16.80;83.60;;;;;;6214105;23;20027;-90
2021/08/24 00:57:16;;;;;;;29.33;20.85;;;16.70;83.90;;;;;;6186972;23;20321;-90
2021/08/24 00:59:42;;;;;;;29.20;20.35;;;16.80;84.10;;;;;;6186729;23;20421;-90
2021/08/24 01:02:13;;;;;;;30.85;22.40;;;16.70;83.90;;;;;;6186735;23;20012;-90
2021/08/24 01:04:39;;;;;;;32.15;19.13;;;16.70;83.80;;;;;;6212708;23;20071;-90
2021/08/24 01:07:31;;;;;;;28.98;18.27;;;16.70;83.50;;;;;;6218635;23;20007;-90
2021/08/24 01:10:13;;;;;;;25.13;17.80;;;16.60;83.30;;;;;;6218342;23;20004;-90
2021/08/24 01:12:58;;;;;;;22.98;16.75;;;16.60;82.90;;;;;;6186708;23;20005;-90
2021/08/24 01:15:51;;;;;;;24.88;16.80;;;16.60;82.70;;;;;;6191544;23;20095;-90
2021/08/24 01:18:35;;;;;;;19.57;14.77;;;16.60;82.90;;;;;;6205830;23;20016;-90
2021/08/24 01:21:10;;;;;;;21.50;15.52;;;16.60;83.20;;;;;;6217906;23;20230;-90
2021/08/24 01:23:52;;;;;;;24.10;15.40;;;16.60;83.30;;;;;;6186372;23;20044;-90
2021/08/24 01:26:25;;;;;;;26.90;17.48;;;16.60;83.50;;;;;;6192193;23;20383;-90
2021/08/24 01:29:26;;;;;;;23.42;16.05;;;16.50;83.70;;;;;;6191328;23;20424;-90
2021/08/24 01:32:04;;;;;;;23.75;17.08;;;16.50;84.00;;;;;;6189014;23;20060;-90
2021/08/24 01:35:08;;;;;;;24.92;17.48;;;16.50;84.10;;;;;;6187139;23;20001;-90
2021/08/24 01:37:44;;;;;;;22.07;15.20;;;16.40;84.70;;;;;;6186647;23;20368;-90
2021/08/24 01:40:17;;;;;;;21.35;15.10;;;16.40;84.60;;;;;;6217858;23;20001;-90
2021/08/24 01:42:44;;;;;;;18.80;14.52;;;16.30;84.70;;;;;;6187397;23;20016;-89
2021/08/24 01:45:14;;;;;;;22.33;16.65;;;16.30;84.80;;;;;;6185907;23;20004;-89
2021/08/24 01:47:48;;;;;;;23.48;16.33;;;16.30;85.00;;;;;;6186612;23;20349;-90
2021/08/24 01:50:21;;;;;;;23.63;16.88;;;16.30;85.00;;;;;;6186309;23;20005;-90
2021/08/24 01:52:55;;;;;;;22.17;16.33;;;16.30;85.10;;;;;;6187382;23;20009;-90
2021/08/24 01:55:37;;;;;;;20.60;15.80;;;16.30;85.00;;;;;;6186325;23;20036;-90
2021/08/24 01:58:11;;;;;;;26.33;16.67;;;16.30;84.90;;;;;;6190893;23;20420;-90
2021/08/24 02:00:42;;;;;;;21.83;14.90;;;16.30;85.00;;;;;;6186374;23;20040;-90
2021/08/24 02:03:12;;;;;;;26.23;15.80;;;16.30;85.30;;;;;;6217754;23;20004;-90
2021/08/24 02:05:44;;;;;;;24.00;17.40;;;16.30;85.30;;;;;;6217899;23;20312;-90
2021/08/24 02:08:34;;;;;;;26.27;18.45;;;16.30;85.60;;;;;;6186222;23;20017;-90
2021/08/24 02:11:02;;;;;;;23.27;17.02;;;16.30;85.60;;;;;;6216476;23;20487;-90
2021/08/24 02:13:32;;;;;;;22.38;16.80;;;16.30;85.20;;;;;;6185979;23;20001;-90
2021/08/24 02:15:59;;;;;;;22.15;15.57;;;16.30;85.30;;;;;;6216016;23;19997;-90
2021/08/24 02:18:34;;;;;;;24.02;16.10;;;16.30;85.30;;;;;;6186115;23;20306;-90
2021/08/24 02:21:27;;;;;;;21.65;15.52;;;16.20;85.10;;;;;;6190252;23;20463;-90
2021/08/24 02:23:57;;;;;;;21.10;15.68;;;16.30;85.10;;;;;;6190693;23;20024;-90
2021/08/24 02:26:26;;;;;;;24.33;17.73;;;16.20;85.40;;;;;;6186415;23;20017;-89
2021/08/24 02:28:55;;;;;;;24.20;16.25;;;16.20;85.60;;;;;;6214305;23;20009;-90
2021/08/24 02:31:34;;;;;;;23.60;15.88;;;16.30;85.60;;;;;;6217390;23;20004;-90
2021/08/24 02:34:35;;;;;;;21.85;15.30;;;16.20;85.50;;;;;;6217416;23;20024;-90
2021/08/24 02:37:13;;;;;;;20.85;14.48;;;16.20;85.70;;;;;;6161427;23;20008;-90
2021/08/24 02:39:59;;;;;;;23.23;16.05;;;16.20;85.80;;;;;;6217355;23;20475;-90
2021/08/24 02:42:30;;;;;;;22.70;15.45;;;16.10;85.70;;;;;;6185833;23;20009;-90
2021/08/24 02:45:04;;;;;;;22.88;15.35;;;16.10;85.80;;;;;;6188755;23;20036;-89
2021/08/24 02:47:30;;;;;;;;;;;16.10;86.00;;;;;;6217490;23;20003;-90
2021/08/24 02:49:56;;;;;;;17.75;12.90;;;16.00;86.00;;;;;;6217573;23;19965;-90
2021/08/24 02:52:22;;;;;;;19.35;13.23;;;16.00;85.90;;;;;;6217704;23;20416;-90
2021/08/24 02:54:51;;;;;;;19.75;13.27;;;16.00;86.00;;;;;;6187222;23;20005;-90
2021/08/24 02:57:17;;;;;;;21.55;14.90;;;16.00;86.10;;;;;;6185644;23;20009;-90
2021/08/24 02:59:43;;;;;;;20.83;14.77;;;16.00;86.20;;;;;;6212409;23;20011;-90
2021/08/24 03:02:10;;;;;;;20.85;15.15;;;16.00;86.40;;;;;;6217149;23;20000;-90
2021/08/24 03:04:36;;;;;;;19.95;14.20;;;16.00;86.40;;;;;;6217155;23;20081;-90
2021/08/24 03:07:06;;;;;;;20.58;14.93;;;16.00;86.60;;;;;;6190438;23;20009;-90
2021/08/24 03:09:33;;;;;;;22.13;14.93;;;16.00;86.90;;;;;;6217158;23;20009;-90
2021/08/24 03:12:29;;;;;;;22.20;15.82;;;16.00;87.00;;;;;;6216966;23;20008;-90
2021/08/24 03:15:09;;;;;;;20.88;14.25;;;16.00;87.00;;;;;;6188526;23;20047;-90
2021/08/24 03:17:46;;;;;;;24.38;14.98;;;16.00;87.10;;;;;;6185674;23;20079;-89
2021/08/24 03:20:14;;;;;;;19.65;14.65;;;16.00;87.30;;;;;;6190612;23;20011;-90
2021/08/24 03:22:41;;;;;;;20.55;14.88;;;15.90;87.40;;;;;;6190858;23;20436;-90
2021/08/24 03:25:08;;;;;;;21.17;15.38;;;15.90;87.50;;;;;;6216803;23;20023;-90
2021/08/24 03:27:38;;;;;;;21.25;15.00;;;16.00;87.70;;;;;;6185505;23;20008;-89
2021/08/24 03:30:08;;;;;;;23.15;16.08;;;16.00;87.80;;;;;;6216253;23;20068;-90
2021/08/24 03:32:34;;;;;;;19.27;14.25;;;15.90;87.60;;;;;;6185574;23;20017;-89
2021/08/24 03:34:59;;;;;;;22.95;14.98;;;16.00;87.70;;;;;;6215403;23;20320;-90
2021/08/24 03:37:25;;;;;;;18.02;13.88;;;16.00;87.70;;;;;;6217292;23;20028;-89
2021/08/24 03:39:51;;;;;;;20.50;15.07;;;16.10;87.80;;;;;;6217211;23;20011;-90
2021/08/24 03:42:17;;;;;;;19.17;14.70;;;16.10;87.80;;;;;;6217200;23;20356;-90
2021/08/24 03:44:43;;;;;;;21.00;14.02;;;16.20;87.80;;;;;;6216941;23;20099;-90
2021/08/24 03:47:10;;;;;;;16.75;12.63;;;16.30;87.10;;;;;;6216857;23;20471;-90
2021/08/24 03:49:37;;;;;;;18.10;13.32;;;16.30;86.70;;;;;;6185909;23;20417;-89
2021/08/24 03:52:03;;;;;;;18.98;14.52;;;16.40;86.50;;;;;;6225247;23;20000;-90
2021/08/24 03:54:29;;;;;;;21.48;15.13;;;16.50;86.40;;;;;;6227346;23;20024;-90
2021/08/24 03:56:54;;;;;;;20.20;16.08;;;16.50;86.30;;;;;;6198163;23;20302;-90
2021/08/24 03:59:20;;;;;;;26.33;15.55;;;16.60;86.20;;;;;;6187307;23;20360;-90
2021/08/24 04:01:46;;;;;;;19.70;15.32;;;16.70;86.10;;;;;;6212618;23;20355;-90
2021/08/24 04:04:11;;;;;;;20.25;15.18;;;16.70;86.10;;;;;;6216465;23;20308;-90
2021/08/24 04:06:37;;;;;;;25.80;17.20;;;16.90;86.00;;;;;;6216561;23;20332;-89
2021/08/24 04:09:03;;;;;;;17.58;15.32;;;16.90;85.90;;;;;;6216566;23;20451;-89
2021/08/24 04:11:28;;;;;;;20.63;15.93;;;17.00;85.90;;;;;;6184812;23;20013;-90
2021/08/24 04:13:54;;;;;;;19.48;14.52;;;17.10;85.70;;;;;;6214327;23;19997;-90
2021/08/24 04:16:20;;;;;;;20.80;15.98;;;17.10;85.50;;;;;;6185085;23;20016;-90
2021/08/24 04:18:45;;;;;;;21.55;16.23;;;17.20;85.30;;;;;;6212021;23;19997;-90
2021/08/24 04:21:15;;;;;;;19.00;14.75;;;17.30;85.10;;;;;;6184961;23;20006;-90
2021/08/24 04:23:42;;;;;;;18.92;14.80;;;17.30;84.90;;;;;;6189355;23;20055;-90
2021/08/24 04:26:08;;;;;;;18.30;12.95;;;17.40;84.70;;;;;;6189785;23;20004;-90
2021/08/24 04:28:35;;;;;;;19.05;13.77;;;17.50;84.50;;;;;;6190266;23;20005;-90
2021/08/24 04:31:06;;;;;;;18.67;14.05;;;17.60;84.20;;;;;;6189634;23;20005;-90
2021/08/24 04:33:33;;;;;;;20.23;13.43;;;17.60;83.80;;;;;;6189855;23;20095;-90
2021/08/24 04:35:59;;;;;;;19.98;13.15;;;17.70;83.30;;;;;;6216460;23;20100;-90
2021/08/24 04:38:25;;;;;;;16.45;13.15;;;17.80;83.10;;;;;;6216654;23;20000;-90
2021/08/24 04:40:51;;;;;;;19.05;12.95;;;17.90;82.90;;;;;;6189800;23;20058;-90
2021/08/24 04:43:18;;;;;;;17.83;13.57;;;18.00;82.50;;;;;;6216405;23;20060;-90
2021/08/24 04:45:44;;;;;;;15.00;12.82;;;18.10;82.20;;;;;;6189710;23;20008;-91
2021/08/24 04:48:09;;;;;;;17.25;13.60;;;18.30;81.80;;;;;;6189755;23;20005;-90
2021/08/24 04:50:36;;;;;;;15.18;12.45;;;18.40;81.40;;;;;;6216486;23;20072;-90
2021/08/24 04:53:02;;;;;;;19.88;14.02;;;18.40;81.00;;;;;;6189784;23;20329;-89
2021/08/24 04:55:28;;;;;;;18.85;13.15;;;18.50;80.70;;;;;;6189841;23;20083;-90
2021/08/24 04:57:53;;;;;;;17.23;13.65;;;18.60;80.40;;;;;;6216402;23;19997;-90
2021/08/24 05:00:19;;;;;;;16.65;13.52;;;18.80;80.30;;;;;;6189602;23;20009;-90
2021/08/24 05:02:45;;;;;;;19.70;13.55;;;18.90;80.10;;;;;;6216393;23;20008;-90
2021/08/24 05:05:11;;;;;;;16.10;12.38;;;19.00;80.00;;;;;;6189747;23;20325;-90
2021/08/24 05:07:36;;;;;;;15.40;11.48;;;19.20;79.80;;;;;;6216183;23;19996;-90
2021/08/24 05:10:04;;;;;;;14.77;12.23;;;19.30;79.30;;;;;;6190896;23;20012;-90
2021/08/24 05:12:31;;;;;;;17.10;12.05;;;19.40;78.60;;;;;;6218232;23;20087;-90
2021/08/24 05:14:56;;;;;;;13.38;11.52;;;19.50;78.20;;;;;;6218069;23;20004;-90
2021/08/24 05:17:22;;;;;;;13.65;10.75;;;19.70;77.40;;;;;;6191607;23;20005;-90
2021/08/24 05:19:48;;;;;;;14.52;10.68;;;19.80;76.70;;;;;;6218077;23;20369;-90
2021/08/24 05:22:14;;;;;;;15.75;12.32;;;19.90;76.20;;;;;;6191309;23;20009;-90
2021/08/24 05:24:40;;;;;;;15.98;11.18;;;20.00;76.00;;;;;;6218183;23;20071;-90
2021/08/24 05:27:06;;;;;;;12.85;10.68;;;20.20;75.80;;;;;;6191545;23;20503;-90
2021/08/24 05:29:32;;;;;;;14.00;11.05;;;20.20;75.60;;;;;;6191304;23;20039;-90
2021/08/24 05:32:02;;;;;;;15.20;10.48;;;20.30;75.10;;;;;;6192137;23;20004;-90
2021/08/24 05:34:31;;;;;;;14.40;9.90;;;20.40;74.80;;;;;;6190222;23;20012;-90
2021/08/24 05:36:57;;;;;;;13.32;9.32;;;20.50;74.20;;;;;;6190948;23;20004;-90
2021/08/24 05:39:22;;;;;;;11.20;8.50;;;20.60;73.50;;;;;;6191619;23;20495;-90
2021/08/24 05:41:48;;;;;;;15.35;10.80;;;20.70;72.80;;;;;;6191122;23;20008;-90
2021/08/24 05:44:14;;;;;;;14.15;10.30;;;20.80;72.10;;;;;;6217245;23;20008;-90
2021/08/24 05:46:40;;;;;;;15.07;10.88;;;20.90;71.50;;;;;;6191130;23;20316;-90
2021/08/24 05:49:08;;;;;;;18.65;10.85;;;21.00;71.00;;;;;;6218003;23;20004;-90
2021/08/24 05:51:35;;;;;;;30.70;17.38;;;21.10;70.70;;;;;;6218159;23;20008;-90
2021/08/24 05:54:01;;;;;;;42.58;25.20;;;21.20;70.20;;;;;;6218007;23;20440;-89
2021/08/24 05:56:28;;;;;;;49.40;26.35;;;21.40;69.60;;;;;;6218767;23;20047;-90
2021/08/24 05:58:54;;;;;;;51.08;28.38;;;21.50;69.00;;;;;;6218239;23;20044;-90
2021/08/24 06:01:31;;;;;;;39.92;21.25;;;21.60;68.60;;;;;;6191591;23;20086;-90
2021/08/24 06:03:58;;;;;;;31.70;18.67;;;21.70;68.00;;;;;;6192142;23;20059;-90
2021/08/24 06:06:33;;;;;;;38.22;20.25;;;21.90;67.80;;;;;;6217703;23;20001;-90
2021/08/24 06:08:59;;;;;;;33.60;19.67;;;22.00;67.20;;;;;;6190752;23;20445;-89
2021/08/24 06:11:31;;;;;;;37.05;22.77;;;22.10;66.50;;;;;;6191119;23;20428;-90
2021/08/24 06:13:58;;;;;;;43.03;24.20;;;22.20;66.00;;;;;;6217633;23;20044;-90
2021/08/24 06:16:24;;;;;;;36.38;22.17;;;22.30;65.70;;;;;;6217309;23;20001;-89
2021/08/24 06:18:50;;;;;;;46.92;25.35;;;22.40;65.10;;;;;;6217594;23;19993;-89
2021/08/24 06:21:18;;;;;;;59.28;33.13;;;22.50;64.80;;;;;;6190473;23;20028;-90
2021/08/24 06:23:45;;;;;;;38.83;22.38;;;22.70;64.60;;;;;;6217694;23;20448;-90
2021/08/24 06:26:11;;;;;;;26.40;15.93;;;22.80;64.40;;;;;;6190888;23;20015;-89
2021/08/24 06:28:37;;;;;;;27.48;16.63;;;23.00;64.00;;;;;;6192166;23;20095;-90
2021/08/24 06:31:03;;;;;;;27.38;17.25;;;23.10;63.60;;;;;;6217127;23;20457;-90
2021/08/24 06:33:34;;;;;;;40.75;21.52;;;23.20;63.30;;;;;;6191254;23;20371;-90
2021/08/24 06:36:00;;;;;;;35.35;20.27;;;23.40;62.80;;;;;;6217174;23;20000;-90
2021/08/24 06:38:26;;;;;;;34.35;20.27;;;23.50;62.30;;;;;;6190554;23;20373;-90
2021/08/24 06:40:52;;;;;;;37.80;19.00;;;23.60;61.70;;;;;;6217189;23;20020;-90
2021/08/24 06:43:18;;;;;;;29.60;16.75;;;23.80;61.20;;;;;;6191375;23;20004;-90
2021/08/24 06:45:44;;;;;;;29.67;17.50;;;23.80;60.80;;;;;;6190344;23;20001;-90
2021/08/24 06:48:09;;;;;;;22.75;14.88;;;23.90;60.50;;;;;;6217139;23;20008;-90
2021/08/24 06:50:36;;;;;;;27.00;14.75;;;24.00;60.30;;;;;;6217718;23;20024;-90
2021/08/24 06:53:02;;;;;;;20.50;12.13;;;24.20;59.90;;;;;;6190667;23;20044;-90
2021/08/24 06:55:31;;;;;;;13.68;9.55;;;24.30;59.60;;;;;;6216832;23;20027;-90
2021/08/24 06:57:57;;;;;;;23.33;11.05;;;24.30;59.20;;;;;;6190532;23;20020;-90
2021/08/24 07:00:25;;;;;;;18.15;11.80;;;24.40;59.00;;;;;;6190737;23;20095;-90
2021/08/24 07:02:53;;;;;;;24.60;11.23;;;24.50;59.10;;;;;;6217009;23;20012;-90
2021/08/24 07:05:20;;;;;;;13.55;8.63;;;24.60;58.80;;;;;;6190270;23;20051;-90
2021/08/24 07:07:46;;;;;;;14.60;7.75;;;24.70;58.20;;;;;;6216619;23;20003;-91
2021/08/24 07:10:14;;;;;;;10.52;7.38;;;24.80;57.80;;;;;;6216390;23;20005;-90
2021/08/24 07:12:41;;;;;;;14.70;7.68;;;24.90;57.50;;;;;;6190384;23;20012;-91
2021/08/24 07:15:08;;;;;;;11.75;7.68;;;25.00;57.10;;;;;;6190700;23;20011;-92
2021/08/24 07:17:34;;;;;;;10.43;7.43;;;25.10;56.70;;;;;;6216987;23;19993;-91
2021/08/24 07:20:07;;;;;;;11.50;6.40;;;25.20;56.50;;;;;;6195808;23;20008;-96
2021/08/24 07:22:36;;;;;;;10.02;6.55;;;25.30;56.20;;;;;;6216883;23;20031;-95
2021/08/24 07:25:11;;;;;;;12.90;6.10;;;25.40;55.90;;;;;;6185900;23;20025;-95
2021/08/24 07:27:41;;;;;;;15.05;9.07;;;25.50;55.60;;;;;;6237680;23;20028;-96
2021/08/24 07:30:25;;;;;;;;;;;;;;;;;;;;;
2021/08/24 07:33:04;;;;;;;19.02;9.70;;;25.60;55.10;;;;;;6240973;23;20012;-95
2021/08/24 07:35:41;;;;;;;19.40;10.07;;;25.60;54.70;;;;;;6212452;23;20004;-96
2021/08/24 07:41:29;;;;;;;15.27;9.02;;;25.70;53.10;;;;;;6119003;23;20003;-95
2021/08/24 07:44:11;;;;;;;17.98;9.43;;;25.80;54.60;;;;;;6205243;22;20015;-96
2021/08/24 07:47:16;;;;;;;;;;;;;;;;;;;;;
2021/08/24 07:50:34;;;;;;;19.85;10.23;;;25.90;51.60;;;;;;6207221;23;20016;-95
2021/08/24 07:53:32;;;;;;;16.27;9.38;;;26.00;53.10;;;;;;6234915;23;20019;-95
2021/08/24 07:56:30;;;;;;;19.40;10.52;;;26.10;52.90;;;;;;6241967;23;20000;-93
2021/08/24 07:59:23;;;;;;;13.88;8.93;;;26.10;52.90;;;;;;6251451;23;19993;-95
2021/08/24 08:01:51;;;;;;;;;;;26.20;52.20;;;;;;6245017;23;20008;-95
2021/08/24 08:04:35;;;;;;;8.35;5.00;;;26.30;51.50;;;;;;6243220;23;19884;-95
2021/08/24 08:09:49;;;;;;;3.70;2.70;;;26.40;51.50;;;;;;6267276;23;20019;-92
2021/08/24 08:12:18;;;;;;;2.80;2.42;;;26.50;51.30;;;;;;6222782;23;20015;-88
2021/08/24 08:14:44;;;;;;;3.28;2.45;;;26.60;51.00;;;;;;6220351;23;20003;-88
2021/08/24 08:17:11;;;;;;;4.03;2.60;;;26.70;51.00;;;;;;6219736;23;20009;-88
2021/08/24 08:19:38;;;;;;;4.60;3.00;;;26.80;51.20;;;;;;6220115;23;20501;-89
2021/08/24 08:22:05;;;;;;;3.03;2.70;;;26.80;51.20;;;;;;6220026;23;20316;-88
2021/08/24 08:24:31;;;;;;;4.55;3.10;;;26.90;51.20;;;;;;6219633;23;20007;-88
2021/08/24 08:26:56;;;;;;;3.53;2.67;;;26.90;51.00;;;;;;6219658;23;20008;-88
2021/08/24 08:29:22;;;;;;;3.17;2.45;;;26.90;50.80;;;;;;6246663;23;20008;-88
2021/08/24 08:31:48;;;;;;;5.60;2.85;;;26.90;50.70;;;;;;6219962;23;20008;-88
2021/08/24 08:34:16;;;;;;;3.55;2.67;;;26.90;51.50;;;;;;6220260;23;20379;-88
2021/08/24 08:36:43;;;;;;;5.43;2.83;;;26.90;51.00;;;;;;6246812;23;20075;-88
2021/08/24 08:39:09;;;;;;;4.38;3.15;;;27.00;51.20;;;;;;6219665;23;20193;-88
2021/08/24 08:42:04;;;;;;;3.78;3.05;;;27.00;51.20;;;;;;6219644;23;20305;-88
2021/08/24 08:44:52;;;;;;;3.10;2.80;;;27.10;51.50;;;;;;6215088;23;20032;-88
2021/08/24 08:48:02;;;;;;;3.13;2.83;;;27.10;51.80;;;;;;6237871;23;20000;-89
2021/08/24 08:50:52;;;;;;;3.35;2.85;;;27.10;52.10;;;;;;6246653;23;20075;-89
2021/08/24 08:53:48;;;;;;;4.22;2.90;;;27.00;52.00;;;;;;6221376;23;20007;-89
2021/08/24 08:56:31;;;;;;;4.53;3.97;;;27.00;52.90;;;;;;6221015;23;20446;-89
2021/08/24 08:59:03;;;;;;;3.60;3.28;;;26.90;52.90;;;;;;6247299;23;20091;-89
2021/08/24 09:01:36;;;;;;;3.70;2.92;;;26.90;53.20;;;;;;6221106;23;20489;-89
2021/08/24 09:04:21;;;;;;;4.85;3.22;;;26.90;53.20;;;;;;6248472;23;20075;-89
2021/08/24 09:06:50;;;;;;;3.88;3.00;;;27.00;53.00;;;;;;6246435;23;20007;-89
2021/08/24 09:09:18;;;;;;;3.38;2.78;;;27.00;52.90;;;;;;6248208;23;19996;-89
2021/08/24 09:11:49;;;;;;;3.78;3.00;;;27.10;52.70;;;;;;6246823;23;20415;-89
2021/08/24 09:15:05;;;;;;;3.65;3.00;;;27.10;51.90;;;;;;6247939;23;20453;-88
2021/08/24 09:17:35;;;;;;;4.50;3.00;;;27.10;51.70;;;;;;6164207;23;20000;-88
2021/08/24 09:20:23;;;;;;;3.42;3.00;;;27.10;51.70;;;;;;6248262;23;20004;-89
2021/08/24 09:22:49;;;;;;;3.30;3.00;;;27.20;50.90;;;;;;6221365;23;20011;-88
2021/08/24 09:25:20;;;;;;;3.47;3.03;;;27.20;50.60;;;;;;6221218;23;20050;-88
2021/08/24 09:28:11;;;;;;;3.90;2.80;;;27.20;50.50;;;;;;6246473;23;20004;-88
2021/08/24 09:30:41;;;;;;;3.00;2.58;;;27.30;49.50;;;;;;6221294;23;20374;-88
2021/08/24 09:33:08;;;;;;;3.10;2.75;;;27.30;49.90;;;;;;6247726;23;20058;-88
2021/08/24 09:35:37;;;;;;;4.18;2.70;;;27.30;50.20;;;;;;6245991;22;20008;-88
2021/08/24 09:38:11;;;;;;;3.33;2.72;;;27.30;50.10;;;;;;6248012;23;20046;-89
2021/08/24 09:40:59;;;;;;;2.58;2.38;;;27.30;50.20;;;;;;6252083;23;20103;-90
2021/08/24 09:43:37;;;;;;;3.83;2.90;;;27.30;50.30;;;;;;6248491;23;20000;-88
2021/08/24 09:46:12;;;;;;;2.97;2.67;;;27.30;50.20;;;;;;6220659;23;20016;-88
2021/08/24 09:48:49;;;;;;;2.78;2.40;;;27.30;49.80;;;;;;6221437;23;20015;-88
2021/08/24 09:51:44;;;;;;;4.10;2.78;;;27.30;50.30;;;;;;6220791;23;20371;-88
2021/08/24 09:54:42;;;;;;;3.75;3.00;;;27.30;50.40;;;;;;6203707;23;20019;-88
2021/08/24 09:57:11;;;;;;;2.95;2.65;;;27.30;49.40;;;;;;6220321;23;20004;-88
2021/08/24 09:59:58;;;;;;;3.00;2.55;;;27.20;50.60;;;;;;6248244;23;20003;-88
2021/08/24 10:02:33;;;;;;;2.80;2.53;;;27.20;49.90;;;;;;6248528;23;20000;-87
2021/08/24 10:04:59;;;;;;;2.63;2.42;;;27.20;49.80;;;;;;6221221;23;20008;-88
2021/08/24 10:07:40;;;;;;;3.35;2.70;;;27.20;49.60;;;;;;6235258;23;20324;-88
2021/08/24 10:10:28;;;;;;;3.15;2.85;;;27.20;49.40;;;;;;6262147;23;20019;-88
2021/08/24 10:12:56;;;;;;;2.90;2.60;;;27.30;49.60;;;;;;6258193;23;20439;-88
2021/08/24 10:15:37;;;;;;;2.83;2.55;;;27.30;49.50;;;;;;6221915;23;20011;-88
2021/08/24 10:18:03;;;;;;;3.72;2.63;;;27.40;49.00;;;;;;6248030;23;20293;-87
2021/08/24 10:20:37;;;;;;;2.92;2.47;;;27.40;49.40;;;;;;6247861;23;20008;-86
2021/08/24 10:23:20;;;;;;;3.20;2.33;;;27.40;49.20;;;;;;6218491;23;20353;-86
2021/08/24 10:25:51;;;;;;;5.57;2.65;;;27.40;48.80;;;;;;6246634;23;20084;-86
2021/08/24 10:28:26;;;;;;;2.45;2.20;;;27.40;48.90;;;;;;6220434;23;20024;-85
2021/08/24 10:30:57;;;;;;;3.35;2.38;;;27.50;48.80;;;;;;6247014;23;20065;-85
2021/08/24 10:33:40;;;;;;;4.25;2.83;;;27.50;48.40;;;;;;6246692;23;19996;-86
2021/08/24 10:36:54;;;;;;;2.40;2.20;;;27.50;47.80;;;;;;6246255;22;20066;-88
2021/08/24 10:39:22;;;;;;;2.40;2.20;;;27.50;46.60;;;;;;6216892;23;20065;-85
2021/08/24 10:42:11;;;;;;;4.15;2.70;;;27.50;47.60;;;;;;6245505;23;20479;-87
2021/08/24 10:44:43;;;;;;;2.75;2.38;;;27.50;46.50;;;;;;6219561;23;20026;-87
2021/08/24 10:47:38;;;;;;;3.33;2.08;;;27.40;46.60;;;;;;6246857;23;20030;-87
2021/08/24 10:50:14;;;;;;;2.63;2.35;;;27.40;46.10;;;;;;6247024;23;20447;-86
2021/08/24 10:53:24;;;;;;;3.85;2.45;;;27.30;46.50;;;;;;6220204;23;20008;-87
2021/08/24 10:55:59;;;;;;;3.08;2.70;;;27.30;45.70;;;;;;6220451;23;20012;-86
2021/08/24 10:58:38;;;;;;;3.70;2.33;;;27.30;46.70;;;;;;6247401;23;19996;-87
2021/08/24 11:01:13;;;;;;;2.53;2.30;;;27.30;46.00;;;;;;6220318;23;20014;-87
2021/08/24 11:04:21;;;;;;;2.50;2.30;;;27.20;45.80;;;;;;6247132;23;20022;-87
2021/08/24 11:06:59;;;;;;;2.30;2.10;;;27.20;45.60;;;;;;6094949;23;20454;-87
2021/08/24 11:09:42;;;;;;;2.55;2.33;;;27.20;45.90;;;;;;6228272;23;20012;-87
2021/08/24 11:12:31;;;;;;;2.50;2.30;;;27.20;45.50;;;;;;6247224;23;20087;-87
2021/08/24 11:15:05;;;;;;;2.58;2.13;;;27.30;45.50;;;;;;6220127;23;20024;-87
2021/08/24 11:17:43;;;;;;;2.17;2.03;;;27.30;45.40;;;;;;6219693;23;20004;-87
2021/08/24 11:20:21;;;;;;;2.70;2.45;;;27.30;45.00;;;;;;6220346;23;20102;-88
2021/08/24 11:23:08;;;;;;;2.80;2.55;;;27.30;44.60;;;;;;6246981;23;20000;-87
2021/08/24 11:26:18;;;;;;;2.78;2.55;;;27.30;44.50;;;;;;6220135;23;20004;-87
2021/08/24 11:29:09;;;;;;;2.60;2.28;;;27.20;44.40;;;;;;6095657;23;20003;-87
2021/08/24 11:31:46;;;;;;;2.60;2.33;;;27.30;44.90;;;;;;6071468;23;20015;-87
2021/08/24 11:34:45;;;;;;;2.47;2.28;;;27.20;44.60;;;;;;6210041;23;20008;-87
2021/08/24 11:37:17;;;;;;;2.38;2.17;;;27.30;44.40;;;;;;6244098;23;20355;-87
2021/08/24 11:39:54;;;;;;;2.63;2.42;;;27.20;43.90;;;;;;6220294;23;20014;-87
2021/08/24 11:42:30;;;;;;;2.78;2.47;;;27.20;43.80;;;;;;6246841;23;20442;-87
2021/08/24 11:44:58;;;;;;;3.70;2.72;;;27.10;43.90;;;;;;6246617;23;20022;-87
2021/08/24 11:47:48;;;;;;;2.55;2.30;;;27.10;43.80;;;;;;6246578;23;20046;-87
2021/08/24 11:50:23;;;;;;;3.55;2.72;;;27.10;43.80;;;;;;6219676;23;20009;-87
2021/08/24 11:52:57;;;;;;;3.55;2.20;;;27.10;43.50;;;;;;6218655;23;20427;-87
2021/08/24 11:55:32;;;;;;;2.88;2.58;;;27.10;43.90;;;;;;6245564;23;20008;-87
2021/08/24 11:58:15;;;;;;;5.88;2.45;;;27.10;43.90;;;;;;6245398;23;20004;-87
2021/08/24 12:00:48;;;;;;;2.90;2.60;;;27.10;43.90;;;;;;6246523;23;20339;-87
2021/08/24 12:03:18;;;;;;;2.40;2.20;;;27.20;44.40;;;;;;6246580;23;20050;-87
2021/08/24 12:05:47;;;;;;;3.95;2.05;;;27.20;43.80;;;;;;6246637;23;20311;-87
2021/08/24 12:08:18;;;;;;;3.20;2.38;;;27.20;43.80;;;;;;6219513;23;20004;-87
2021/08/24 12:10:50;;;;;;;2.60;2.10;;;27.30;43.90;;;;;;6245166;23;20008;-87
2021/08/24 12:13:31;;;;;;;2.42;2.03;;;27.40;43.90;;;;;;6219849;23;20324;-87
2021/08/24 12:16:18;;;;;;;2.58;2.30;;;27.40;43.80;;;;;;6219939;23;20000;-87
2021/08/24 12:18:45;;;;;;;3.53;2.67;;;27.50;43.50;;;;;;6246390;23;19999;-86
2021/08/24 12:21:48;;;;;;;3.17;2.13;;;27.50;43.60;;;;;;6244979;23;20096;-86
2021/08/24 12:24:41;;;;;;;2.17;1.97;;;27.60;43.70;;;;;;6219758;23;20063;-87
2021/08/24 12:27:06;;;;;;;3.47;2.67;;;27.70;43.50;;;;;;6240047;23;20032;-86
2021/08/24 12:29:32;;;;;;;2.50;2.20;;;27.80;43.50;;;;;;6245837;23;20011;-87
2021/08/24 12:32:00;;;;;;;2.65;2.28;;;27.90;43.40;;;;;;6218506;23;20372;-86
2021/08/24 12:34:35;;;;;;;3.40;2.45;;;27.90;43.30;;;;;;6246157;22;20003;-86
2021/08/24 12:37:00;;;;;;;2.45;2.20;;;28.00;43.30;;;;;;6219457;23;20297;-87
2021/08/24 12:39:43;;;;;;;3.40;2.65;;;28.20;43.40;;;;;;6246087;23;20000;-87
2021/08/24 12:42:36;;;;;;;2.90;2.50;;;28.40;42.80;;;;;;6244797;23;20074;-86
2021/08/24 12:45:02;;;;;;;2.83;2.47;;;28.50;42.50;;;;;;6246413;23;20039;-87
2021/08/24 12:47:39;;;;;;;2.35;2.15;;;28.70;42.30;;;;;;6246061;23;20000;-86
2021/08/24 12:50:07;;;;;;;2.55;2.28;;;28.90;42.00;;;;;;6246129;23;20440;-86
2021/08/24 12:52:41;;;;;;;2.25;2.05;;;29.10;42.10;;;;;;6246429;23;20016;-86
2021/08/24 12:55:39;;;;;;;2.20;2.00;;;29.50;41.80;;;;;;6243852;23;20004;-88
2021/08/24 12:58:19;;;;;;;2.17;1.98;;;29.80;41.10;;;;;;6243933;23;20000;-87
2021/08/24 13:01:25;;;;;;;2.88;2.25;;;30.10;41.90;;;;;;6245224;23;20412;-87
2021/08/24 13:04:21;;;;;;;2.33;2.13;;;30.60;40.90;;;;;;6246043;23;19992;-87
2021/08/24 13:07:08;;;;;;;2.75;2.20;;;30.90;40.60;;;;;;6245843;23;20534;-87
2021/08/24 13:09:36;;;;;;;2.10;1.95;;;31.20;40.70;;;;;;6243807;23;20145;-88
2021/08/24 13:12:08;;;;;;;2.50;2.30;;;31.30;40.50;;;;;;6245587;23;20000;-87
2021/08/24 13:14:56;;;;;;;1.77;1.67;;;31.50;40.20;;;;;;6246231;23;20071;-87
2021/08/24 13:17:49;;;;;;;3.90;2.40;;;31.80;40.20;;;;;;6246090;23;20068;-87